Tri Cities Regional Tn Va Airport
KTRI : now visible

Airfield :











YOU CAN JOIN US ON...

 
LOGIN :

Register | Disclaimer

   EN    FR    IT 

 









Legend :    VFR   Marginal VFR   IFR   Intensive IFR   Very Intensive IFR
Visi :
Ceiling :
>= 8 km
>= 3000ft
5 to 8 km
1000 to 3000 ft
1500m to 5 km
500 to 1000 ft
800 to 1500m
200 to 500 ft
< 800m
< 200 ft
Symbols :   Thunderstorms  Fog  Heavy snow  Heavy precipitations  Wind > 20 kt






- Airport Elevation : 1519 ft
- IATA code : TRI


KTRI - Tri Cities Regional Tn Va

CURRENT METAR :
  • 041653Z VRB05KT 10SM SCT026 SCT033 26/19 A3002 RMK AO2 SLP140 CB DSNT W T02610189

EXPIRED METARs :
  • 041553Z 28004KT 10SM SCT022 24/19 A3002 RMK AO2 SLP142 T02440189
  • 041540Z VRB03KT 10SM FEW013 SCT021 24/19 A3002 RMK AO2 T02440189
  • 041453Z 27005KT 10SM OVC021 23/19 A3002 RMK AO2 SLP141 T02330194 53009
  • 041440Z VRB04KT 10SM FEW012 OVC017 22/19 A3001 RMK AO2 T02220189

TAF KTRI
Valid from the 04 at 14:00 until the 05 at 12:00 UTC


041428Z 0414/0512 22006KT P6SM OVC012
FM041600 25006KT P6SM SCT020 SCT040
FM041900 26006KT P6SM VCTS SCT060CB
FM050000 00000KT P6SM SCT090
FM050600 00000KT 3SM BR SCT060
KZTL FIR / North America



MET'MAP, your aeronautical weather chart ! - Copyright ORBIFLY December 2007 - Disclaimer

ORBIFLY MET'MAP TEAM :

Programming & Development : Alexandra Zaïnal
Concept & original design : Baudouin d'Aumeries
Assistance for programming : Marc-Olivier Méhu
Technical & hardware support : Manuel Goepfert

Contact : metmap@orbifly.com




SOURCES & CREDITS :

   NOAA       Earth
Advisory